Terminal Aerodrome Forecast
Issued by NWS

Home | Current Version | Previous Version | Text Only | Print | Product List | Glossary On
Versions: 1 2 3 4 5 6 7 8 9 10 11 12 13
000
FTUS46 KSGX 121100
TAFPSP
TAF
KPSP 121120Z 1212/1312 VRB05KT P6SM SCT200
     FM122200 33010G18KT P6SM SCT200
     FM130800 VRB05KT P6SM FEW200=

USA.gov is the U.S. government's official web portal to all federal, state and local government web resources and services.